createdAt,value
2018-11-10T00:01:40.021Z,18.70
2018-11-10T00:04:08.157Z,17.83
2018-11-10T00:06:36.220Z,18.27
2018-11-10T00:09:06.043Z,18.40
2018-11-10T00:11:34.128Z,14.30
2018-11-10T00:14:02.240Z,18.80
2018-11-10T00:16:30.374Z,16.33
2018-11-10T00:18:58.484Z,18.05
2018-11-10T00:21:26.630Z,24.67
2018-11-10T00:23:54.788Z,19.33
2018-11-10T00:26:22.956Z,21.85
2018-11-10T00:28:51.196Z,16.57
2018-11-10T00:31:19.329Z,16.77
2018-11-10T00:33:47.488Z,19.93
2018-11-10T00:36:15.612Z,18.10
2018-11-10T00:38:43.761Z,16.50
2018-11-10T00:41:12.836Z,18.13
2018-11-10T00:43:41.002Z,17.47
2018-11-10T00:46:09.159Z,16.50
2018-11-10T00:48:37.280Z,17.40
2018-11-10T00:51:05.454Z,19.30
2018-11-10T00:53:33.603Z,14.27
2018-11-10T00:56:01.740Z,16.50
2018-11-10T00:58:29.872Z,12.00
2018-11-10T01:00:58.006Z,14.77
2018-11-10T01:03:26.192Z,17.60
2018-11-10T01:05:54.340Z,13.22
2018-11-10T01:08:22.586Z,13.50
2018-11-10T01:10:50.734Z,18.67
2018-11-10T01:13:18.927Z,16.10
2018-11-10T01:15:47.049Z,13.80
2018-11-10T01:18:15.567Z,13.10
2018-11-10T01:20:43.723Z,14.17
2018-11-10T01:23:11.916Z,16.90
2018-11-10T01:25:40.053Z,14.40
2018-11-10T01:28:08.214Z,16.43
2018-11-10T01:30:36.369Z,12.17
2018-11-10T01:33:04.475Z,13.10
2018-11-10T01:35:32.702Z,15.37
2018-11-10T01:38:00.851Z,14.50
2018-11-10T01:40:28.985Z,18.50
2018-11-10T01:42:57.110Z,15.70
2018-11-10T01:45:25.272Z,16.83
2018-11-10T01:47:53.428Z,12.27
2018-11-10T01:50:21.609Z,10.77
2018-11-10T01:52:49.751Z,12.50
2018-11-10T01:55:17.929Z,12.63
2018-11-10T01:57:46.135Z,10.40
2018-11-10T02:00:15.868Z,11.87
2018-11-10T02:02:44.713Z,14.70
2018-11-10T02:05:12.893Z,12.07
2018-11-10T02:07:41.054Z,12.70
2018-11-10T02:10:10.179Z,11.00
2018-11-10T02:12:38.334Z,13.73
2018-11-10T02:15:09.183Z,13.80
2018-11-10T02:17:37.293Z,12.40
2018-11-10T02:20:07.401Z,11.10
2018-11-10T02:22:35.585Z,9.03
2018-11-10T02:25:03.845Z,13.70
2018-11-10T02:27:31.979Z,13.25
2018-11-10T02:30:00.135Z,10.70
2018-11-10T02:32:28.416Z,10.10
2018-11-10T02:34:56.544Z,12.97
2018-11-10T02:37:24.702Z,10.47
2018-11-10T02:39:52.826Z,12.63
2018-11-10T02:42:20.977Z,10.17
2018-11-10T02:44:49.107Z,8.10
2018-11-10T02:47:17.294Z,11.20
2018-11-10T02:49:45.410Z,11.47
2018-11-10T02:52:13.520Z,10.00
2018-11-10T02:54:41.689Z,10.40
2018-11-10T02:57:09.811Z,8.93
2018-11-10T02:59:37.960Z,10.13
2018-11-10T03:02:06.140Z,9.78
2018-11-10T03:04:34.268Z,9.20
2018-11-10T03:07:02.469Z,10.87
2018-11-10T03:09:30.595Z,8.53
2018-11-10T03:11:58.670Z,11.20
2018-11-10T03:14:26.753Z,9.40
2018-11-10T03:16:54.853Z,10.17
2018-11-10T03:19:23.076Z,8.80
2018-11-10T03:21:51.179Z,6.83
2018-11-10T03:24:19.321Z,9.77
2018-11-10T03:26:47.436Z,7.83
2018-11-10T03:29:15.520Z,11.13
2018-11-10T03:31:43.624Z,9.73
2018-11-10T03:34:11.706Z,9.33
2018-11-10T03:36:39.815Z,10.32
2018-11-10T03:39:10.172Z,8.07
2018-11-10T03:41:38.300Z,6.73
2018-11-10T03:44:06.445Z,9.70
2018-11-10T03:46:34.534Z,7.03
2018-11-10T03:49:02.645Z,6.90
2018-11-10T03:51:30.761Z,8.10
2018-11-10T03:53:58.856Z,8.10
2018-11-10T03:56:26.981Z,8.53
2018-11-10T03:58:55.820Z,9.33
2018-11-10T04:01:23.911Z,9.10
2018-11-10T04:03:52.023Z,7.70
2018-11-10T04:06:20.126Z,7.47
2018-11-10T04:08:48.221Z,9.13
2018-11-10T04:11:16.328Z,7.13
2018-11-10T04:13:44.488Z,8.57
2018-11-10T04:16:12.642Z,8.90
2018-11-10T04:18:41.416Z,8.85
2018-11-10T04:21:09.509Z,7.53
2018-11-10T04:23:37.608Z,8.05
2018-11-10T04:26:05.762Z,5.77
2018-11-10T04:28:33.875Z,6.50
2018-11-10T04:31:01.962Z,6.90
2018-11-10T04:33:30.156Z,7.60
2018-11-10T04:35:58.844Z,9.30
2018-11-10T04:38:26.945Z,6.90
2018-11-10T04:40:55.031Z,9.30
2018-11-10T04:43:23.111Z,10.77
2018-11-10T04:45:51.241Z,7.10
2018-11-10T04:48:19.330Z,5.03
2018-11-10T04:50:47.407Z,7.23
2018-11-10T04:53:15.492Z,8.13
2018-11-10T04:55:43.614Z,6.83
2018-11-10T04:58:11.703Z,9.03
2018-11-10T05:00:39.887Z,6.60
2018-11-10T05:03:08.070Z,8.03
2018-11-10T05:05:36.182Z,6.33
2018-11-10T05:08:04.403Z,7.50
2018-11-10T05:10:32.525Z,6.37
2018-11-10T05:13:00.718Z,7.30
2018-11-10T05:15:28.867Z,8.27
2018-11-10T05:17:57.046Z,7.17
2018-11-10T05:20:25.229Z,5.40
2018-11-10T05:22:53.399Z,6.70
2018-11-10T05:25:21.508Z,7.60
2018-11-10T05:27:49.622Z,6.03
2018-11-10T05:30:17.769Z,11.55
2018-11-10T05:32:45.962Z,7.25
2018-11-10T05:35:14.049Z,7.93
2018-11-10T05:37:42.132Z,8.17
2018-11-10T05:40:11.201Z,5.92
2018-11-10T05:42:39.900Z,6.22
2018-11-10T05:45:07.992Z,6.93
2018-11-10T05:47:36.089Z,5.00
2018-11-10T05:50:05.118Z,7.70
2018-11-10T05:52:33.221Z,5.43
2018-11-10T05:55:01.342Z,5.53
2018-11-10T05:57:29.953Z,8.70
2018-11-10T05:59:58.031Z,6.63
2018-11-10T06:02:26.148Z,5.90
2018-11-10T06:04:54.317Z,5.60
2018-11-10T06:07:22.486Z,6.67
2018-11-10T06:09:50.829Z,6.33
2018-11-10T06:12:18.824Z,5.70
2018-11-10T06:14:47.037Z,6.53
2018-11-10T06:17:15.161Z,4.97
2018-11-10T06:19:43.281Z,5.80
2018-11-10T06:22:11.469Z,5.60
2018-11-10T06:24:39.582Z,6.73
2018-11-10T06:27:07.707Z,5.00
2018-11-10T06:29:35.842Z,5.60
2018-11-10T06:32:04.007Z,6.70
2018-11-10T06:34:32.125Z,5.80
2018-11-10T06:37:00.345Z,5.33
2018-11-10T06:39:28.478Z,5.10
2018-11-10T06:41:56.684Z,6.60
2018-11-10T06:44:24.835Z,5.63
2018-11-10T06:46:53.125Z,6.20
2018-11-10T06:49:21.294Z,4.67
2018-11-10T06:51:49.476Z,4.65
2018-11-10T06:54:17.621Z,7.70
2018-11-10T06:56:45.852Z,5.37
2018-11-10T06:59:14.160Z,7.13
2018-11-10T07:01:42.371Z,5.33
2018-11-10T07:04:10.626Z,6.57
2018-11-10T07:06:38.885Z,6.23
2018-11-10T07:09:08.937Z,6.80
2018-11-10T07:11:37.129Z,5.80
2018-11-10T07:14:05.501Z,5.07
2018-11-10T07:16:33.620Z,7.90
2018-11-10T07:19:01.772Z,4.27
2018-11-10T07:21:30.036Z,6.45
2018-11-10T07:23:58.116Z,7.40
2018-11-10T07:26:26.249Z,7.97
2018-11-10T07:28:54.399Z,5.47
2018-11-10T07:31:22.513Z,6.87
2018-11-10T07:33:50.802Z,9.27
2018-11-10T07:36:18.925Z,8.63
2018-11-10T07:38:47.013Z,5.83
2018-11-10T07:41:15.165Z,8.10
2018-11-10T07:43:44.082Z,5.83
2018-11-10T07:46:12.303Z,7.77
2018-11-10T07:48:40.545Z,5.93
2018-11-10T07:51:08.703Z,12.63
2018-11-10T07:53:36.788Z,14.60
2018-11-10T07:56:05.657Z,6.60
2018-11-10T07:58:33.696Z,9.63
2018-11-10T08:01:01.886Z,12.60
2018-11-10T08:03:30.029Z,9.77
2018-11-10T08:05:58.249Z,6.17
2018-11-10T08:08:27.249Z,5.33
2018-11-10T08:10:55.409Z,6.50
2018-11-10T08:13:23.610Z,8.60
2018-11-10T08:15:51.764Z,11.63
2018-11-10T08:18:19.956Z,7.53
2018-11-10T08:20:48.070Z,4.57
2018-11-10T08:23:17.057Z,7.08
2018-11-10T08:25:45.178Z,4.40
2018-11-10T08:28:13.365Z,8.33
2018-11-10T08:30:41.513Z,7.20
2018-11-10T08:33:09.667Z,7.23
2018-11-10T08:35:37.763Z,6.07
2018-11-10T08:38:05.984Z,5.80
2018-11-10T08:40:34.140Z,7.00
2018-11-10T08:43:02.368Z,8.05
2018-11-10T08:45:30.529Z,6.45
2018-11-10T08:47:58.733Z,5.00
2018-11-10T08:50:26.883Z,6.20
2018-11-10T08:52:54.987Z,12.77
2018-11-10T08:55:23.197Z,8.43
2018-11-10T08:57:51.353Z,7.43
2018-11-10T09:00:19.481Z,6.90
2018-11-10T09:02:47.698Z,4.77
2018-11-10T09:05:15.833Z,13.00
2018-11-10T09:07:44.026Z,5.27
2018-11-10T09:10:13.356Z,6.33
2018-11-10T09:12:41.545Z,5.23
2018-11-10T09:15:11.868Z,5.30
2018-11-10T09:17:40.159Z,6.77
2018-11-10T09:20:10.291Z,4.80
2018-11-10T09:22:38.521Z,6.10
2018-11-10T09:25:08.213Z,6.23
2018-11-10T09:27:36.403Z,3.80
2018-11-10T09:30:04.566Z,5.80
2018-11-10T09:32:32.737Z,4.27
2018-11-10T09:35:00.905Z,4.27
2018-11-10T09:37:29.065Z,5.90
2018-11-10T09:39:57.185Z,5.65
2018-11-10T09:42:25.620Z,5.73
2018-11-10T09:44:53.580Z,4.77
2018-11-10T09:47:22.030Z,7.93
2018-11-10T09:49:50.183Z,4.93
2018-11-10T09:52:18.346Z,5.27
2018-11-10T09:54:46.524Z,6.67
2018-11-10T09:57:14.680Z,6.30
2018-11-10T09:59:42.997Z,6.00
2018-11-10T10:02:11.880Z,8.83
2018-11-10T10:04:39.834Z,6.23
2018-11-10T10:07:08.135Z,5.10
2018-11-10T10:09:36.301Z,6.70
2018-11-10T10:12:04.541Z,7.50
2018-11-10T10:14:32.691Z,7.60
2018-11-10T10:17:00.826Z,3.83
2018-11-10T10:19:28.975Z,3.63
2018-11-10T10:21:57.215Z,4.80
2018-11-10T10:24:25.304Z,4.60
2018-11-10T10:26:53.566Z,3.90
2018-11-10T10:29:21.792Z,5.90
2018-11-10T10:31:49.854Z,7.30
2018-11-10T10:34:18.078Z,5.57
2018-11-10T10:36:46.141Z,3.93
2018-11-10T10:39:14.328Z,5.10
2018-11-10T10:41:42.447Z,5.45
2018-11-10T10:44:11.004Z,4.00
2018-11-10T10:46:39.145Z,4.87
2018-11-10T10:49:07.346Z,5.70
2018-11-10T10:51:35.710Z,5.03
2018-11-10T10:54:03.874Z,7.73
2018-11-10T10:56:32.089Z,3.10
2018-11-10T10:59:00.414Z,4.43
2018-11-10T11:01:33.844Z,6.60
2018-11-10T11:04:07.269Z,4.03
2018-11-10T11:06:35.535Z,5.47
2018-11-10T11:09:03.775Z,3.43
2018-11-10T11:11:31.953Z,4.62
2018-11-10T11:14:00.154Z,9.03
2018-11-10T11:16:28.334Z,7.20
2018-11-10T11:18:56.507Z,4.23
2018-11-10T11:21:24.653Z,5.77
2018-11-10T11:23:52.860Z,3.70
2018-11-10T11:26:20.970Z,4.43
2018-11-10T11:28:49.095Z,12.47
2018-11-10T11:31:17.202Z,4.77
2018-11-10T11:33:45.487Z,5.07
2018-11-10T11:36:13.590Z,6.55
2018-11-10T11:38:41.886Z,5.45
2018-11-10T11:41:10.068Z,4.47
2018-11-10T11:43:38.942Z,4.13
2018-11-10T11:46:07.093Z,5.40
2018-11-10T11:48:35.210Z,3.30
2018-11-10T11:51:03.343Z,8.70
2018-11-10T11:53:31.501Z,9.83
2018-11-10T11:56:00.531Z,4.03
2018-11-10T11:58:28.725Z,6.23
2018-11-10T12:00:56.837Z,3.93
2018-11-10T12:03:24.959Z,6.23
2018-11-10T12:05:53.086Z,4.67
2018-11-10T12:08:21.205Z,3.47
2018-11-10T12:10:49.330Z,4.60
2018-11-10T12:13:17.509Z,5.73
2018-11-10T12:15:45.671Z,5.73
2018-11-10T12:18:13.880Z,5.47
2018-11-10T12:20:41.999Z,4.30
2018-11-10T12:23:10.089Z,3.70
2018-11-10T12:25:38.194Z,3.77
2018-11-10T12:28:06.425Z,4.23
2018-11-10T12:30:34.673Z,5.37
2018-11-10T12:33:03.609Z,4.23
2018-11-10T12:35:31.809Z,3.20
2018-11-10T12:37:59.956Z,3.63
2018-11-10T12:40:28.157Z,3.83
2018-11-10T12:42:56.300Z,5.60
2018-11-10T12:45:24.385Z,3.20
2018-11-10T12:47:52.580Z,3.40
2018-11-10T12:50:20.730Z,2.47
2018-11-10T12:52:48.965Z,6.85
2018-11-10T12:55:17.276Z,3.23
2018-11-10T12:57:46.312Z,3.83
2018-11-10T13:00:16.037Z,4.50
2018-11-10T13:02:44.692Z,8.98
2018-11-10T13:05:13.230Z,3.40
2018-11-10T13:07:42.952Z,2.63
2018-11-10T13:10:11.686Z,10.63
2018-11-10T13:12:40.214Z,4.60
2018-11-10T13:15:08.650Z,3.77
2018-11-10T13:17:37.151Z,7.83
2018-11-10T13:20:06.967Z,5.50
2018-11-10T13:22:35.058Z,5.50
2018-11-10T13:25:03.135Z,3.37
2018-11-10T13:27:31.321Z,5.43
2018-11-10T13:29:59.454Z,9.13
2018-11-10T13:32:27.638Z,4.30
2018-11-10T13:34:55.754Z,5.97
2018-11-10T13:37:23.846Z,5.05
2018-11-10T13:39:51.996Z,4.70
2018-11-10T13:42:20.146Z,4.50
2018-11-10T13:44:48.213Z,3.50
2018-11-10T13:47:16.346Z,5.73
2018-11-10T13:49:44.458Z,4.63
2018-11-10T13:52:12.986Z,4.03
2018-11-10T13:54:40.766Z,2.53
2018-11-10T13:57:08.935Z,2.50
2018-11-10T13:59:37.041Z,3.60
2018-11-10T14:02:05.393Z,3.37
2018-11-10T14:04:33.531Z,4.00
2018-11-10T14:07:01.624Z,4.20
2018-11-10T14:09:29.716Z,5.30
2018-11-10T14:11:57.822Z,34.70
2018-11-10T14:14:25.927Z,97.40
2018-11-10T14:16:54.066Z,113.80
2018-11-10T14:19:22.196Z,42.77
2018-11-10T14:21:50.325Z,31.00
2018-11-10T14:24:18.427Z,21.97
2018-11-10T14:26:46.529Z,26.90
2018-11-10T14:29:14.612Z,25.70
2018-11-10T14:31:42.812Z,16.37
2018-11-10T14:34:11.415Z,22.00
2018-11-10T14:36:39.540Z,14.23
2018-11-10T14:39:08.813Z,17.60
2018-11-10T14:41:36.996Z,14.20
2018-11-10T14:44:05.423Z,14.13
2018-11-10T14:46:33.677Z,10.03
2018-11-10T14:49:01.919Z,12.97
2018-11-10T14:51:30.044Z,14.95
2018-11-10T14:53:58.207Z,10.73
2018-11-10T14:56:26.413Z,14.90
2018-11-10T14:58:55.605Z,10.30
2018-11-10T15:01:23.708Z,14.23
2018-11-10T15:03:51.969Z,14.73
2018-11-10T15:06:20.145Z,13.08
2018-11-10T15:08:49.177Z,14.47
2018-11-10T15:11:17.313Z,19.10
2018-11-10T15:13:45.403Z,14.50
2018-11-10T15:16:13.532Z,11.93
2018-11-10T15:18:41.722Z,12.80
2018-11-10T15:21:09.843Z,15.80
2018-11-10T15:23:37.926Z,10.40
2018-11-10T15:26:06.125Z,11.90
2018-11-10T15:28:34.289Z,9.90
2018-11-10T15:31:02.404Z,12.17
2018-11-10T15:33:30.556Z,10.80
2018-11-10T15:35:58.742Z,9.80
2018-11-10T15:38:26.901Z,12.88
2018-11-10T15:40:55.036Z,11.07
2018-11-10T15:43:23.221Z,10.40
2018-11-10T15:45:51.384Z,8.97
2018-11-10T15:48:19.576Z,9.33
2018-11-10T15:50:47.734Z,10.63
2018-11-10T15:53:15.934Z,8.43
2018-11-10T15:55:44.091Z,8.80
2018-11-10T15:58:12.291Z,9.20
2018-11-10T16:00:40.412Z,8.60
2018-11-10T16:03:08.557Z,12.30
2018-11-10T16:05:36.729Z,8.50
2018-11-10T16:08:05.342Z,10.23
2018-11-10T16:10:33.509Z,7.50
2018-11-10T16:13:01.737Z,7.33
2018-11-10T16:15:29.845Z,9.93
2018-11-10T16:17:58.023Z,10.73
2018-11-10T16:20:26.153Z,7.80
2018-11-10T16:22:54.316Z,8.47
2018-11-10T16:25:22.516Z,7.55
2018-11-10T16:27:50.791Z,47.50
2018-11-10T16:30:19.633Z,7.20
2018-11-10T16:32:48.381Z,8.27
2018-11-10T16:35:16.501Z,9.40
2018-11-10T16:37:44.662Z,13.90
2018-11-10T16:40:14.940Z,12.33
2018-11-10T16:42:44.368Z,15.37
2018-11-10T16:45:13.029Z,13.70
2018-11-10T16:47:41.273Z,15.80
2018-11-10T16:50:09.988Z,18.00
2018-11-10T16:52:38.392Z,19.73
2018-11-10T16:55:06.764Z,23.67
2018-11-10T16:57:34.932Z,20.50
2018-11-10T17:00:03.060Z,20.20
2018-11-10T17:02:31.264Z,23.77
2018-11-10T17:04:59.530Z,20.27
2018-11-10T17:07:27.685Z,20.67
2018-11-10T17:09:55.786Z,20.23
2018-11-10T17:12:23.945Z,21.90
2018-11-10T17:14:52.092Z,22.33
2018-11-10T17:17:20.292Z,23.77
2018-11-10T17:19:48.468Z,21.87
2018-11-10T17:22:16.739Z,21.90
2018-11-10T17:24:44.791Z,18.03
2018-11-10T17:27:13.061Z,16.47
2018-11-10T17:29:41.291Z,14.40
2018-11-10T17:32:09.460Z,14.13
2018-11-10T17:34:37.635Z,12.40
2018-11-10T17:37:05.803Z,13.40
2018-11-10T17:39:34.074Z,12.47
2018-11-10T17:42:02.232Z,11.38
2018-11-10T17:44:30.396Z,15.60
2018-11-10T17:46:58.562Z,15.10
2018-11-10T17:49:26.739Z,11.63
2018-11-10T17:51:54.867Z,10.30
2018-11-10T17:54:23.040Z,10.07
2018-11-10T17:56:51.185Z,9.80
2018-11-10T17:59:19.373Z,9.73
2018-11-10T18:01:47.586Z,9.40
2018-11-10T18:04:15.655Z,8.50
2018-11-10T18:06:43.784Z,8.13
2018-11-10T18:09:12.426Z,7.97
2018-11-10T18:11:41.003Z,10.40
2018-11-10T18:14:09.340Z,9.00
2018-11-10T18:16:37.507Z,10.27
2018-11-10T18:19:05.911Z,9.77
2018-11-10T18:21:33.993Z,10.87
2018-11-10T18:24:02.150Z,10.37
2018-11-10T18:26:30.305Z,8.30
2018-11-10T18:28:58.442Z,8.20
2018-11-10T18:31:27.231Z,11.67
2018-11-10T18:33:55.469Z,9.80
2018-11-10T18:36:23.799Z,9.50
2018-11-10T18:38:51.956Z,8.40
2018-11-10T18:41:20.097Z,9.60
2018-11-10T18:43:48.375Z,8.20
2018-11-10T18:46:16.492Z,10.20
2018-11-10T18:48:44.599Z,7.62
2018-11-10T18:51:12.749Z,7.90
2018-11-10T18:53:40.868Z,7.47
2018-11-10T18:56:09.005Z,7.80
2018-11-10T18:58:37.141Z,6.27
2018-11-10T19:01:05.297Z,7.00
2018-11-10T19:03:33.497Z,6.90
2018-11-10T19:06:01.625Z,8.47
2018-11-10T19:08:29.740Z,6.97
2018-11-10T19:10:57.942Z,9.53
2018-11-10T19:13:26.069Z,6.97
2018-11-10T19:15:54.170Z,6.70
2018-11-10T19:18:22.287Z,6.10
2018-11-10T19:20:50.522Z,9.50
2018-11-10T19:23:18.664Z,6.08
2018-11-10T19:25:46.824Z,13.05
2018-11-10T19:28:14.987Z,23.33
2018-11-10T19:30:43.132Z,17.30
2018-11-10T19:33:11.285Z,20.60
2018-11-10T19:35:39.394Z,20.23
2018-11-10T19:38:07.561Z,20.60
2018-11-10T19:40:35.724Z,20.23
2018-11-10T19:43:03.933Z,20.07
2018-11-10T19:45:32.195Z,17.63
2018-11-10T19:48:00.357Z,19.80
2018-11-10T19:50:28.891Z,21.53
2018-11-10T19:52:57.086Z,18.07
2018-11-10T19:55:25.221Z,16.60
2018-11-10T19:57:53.472Z,19.97
2018-11-10T20:00:23.058Z,17.83
2018-11-10T20:02:51.250Z,13.77
2018-11-10T20:05:19.378Z,14.33
2018-11-10T20:07:47.578Z,17.17
2018-11-10T20:10:15.817Z,13.08
2018-11-10T20:12:44.337Z,13.20
2018-11-10T20:15:13.720Z,13.83
2018-11-10T20:17:42.186Z,13.10
2018-11-10T20:20:11.328Z,11.57
2018-11-10T20:22:39.493Z,16.10
2018-11-10T20:25:09.117Z,13.67
2018-11-10T20:27:37.248Z,15.63
2018-11-10T20:30:07.817Z,17.70
2018-11-10T20:32:35.947Z,18.17
2018-11-10T20:35:04.060Z,22.00
2018-11-10T20:37:32.197Z,17.70
2018-11-10T20:40:00.360Z,18.73
2018-11-10T20:42:28.507Z,15.73
2018-11-10T20:44:56.714Z,16.33
2018-11-10T20:47:24.819Z,14.90
2018-11-10T20:49:53.074Z,12.80
2018-11-10T20:52:21.174Z,14.63
2018-11-10T20:54:49.306Z,14.40
2018-11-10T20:57:17.480Z,15.53
2018-11-10T20:59:45.594Z,16.83
2018-11-10T21:02:13.787Z,13.80
2018-11-10T21:04:41.949Z,14.70
2018-11-10T21:07:10.189Z,13.97
2018-11-10T21:09:38.334Z,16.57
2018-11-10T21:12:06.614Z,14.60
2018-11-10T21:14:34.738Z,16.13
2018-11-10T21:17:02.831Z,12.70
2018-11-10T21:19:30.927Z,12.73
2018-11-10T21:21:59.026Z,15.10
2018-11-10T21:24:27.120Z,14.73
2018-11-10T21:26:55.252Z,14.07
2018-11-10T21:29:23.458Z,13.00
2018-11-10T21:31:51.698Z,11.70
2018-11-10T21:34:19.849Z,12.13
2018-11-10T21:36:48.038Z,13.70
2018-11-10T21:39:16.187Z,14.37
2018-11-10T21:41:44.289Z,12.30
2018-11-10T21:44:12.424Z,11.00
2018-11-10T21:46:40.510Z,13.80
2018-11-10T21:49:08.685Z,10.60
2018-11-10T21:51:36.772Z,12.13
2018-11-10T21:54:04.967Z,11.33
2018-11-10T21:56:33.079Z,10.17
2018-11-10T21:59:01.235Z,10.20
2018-11-10T22:01:29.356Z,10.85
2018-11-10T22:03:57.538Z,13.45
2018-11-10T22:06:25.810Z,15.90
2018-11-10T22:08:54.312Z,10.00
2018-11-10T22:11:22.498Z,11.50
2018-11-10T22:13:50.678Z,10.43
2018-11-10T22:16:18.974Z,9.63
2018-11-10T22:18:47.168Z,10.18
2018-11-10T22:21:15.339Z,11.97
2018-11-10T22:23:43.463Z,14.37
2018-11-10T22:26:11.676Z,13.33
2018-11-10T22:28:39.800Z,11.93
2018-11-10T22:31:07.982Z,19.87
2018-11-10T22:33:36.092Z,9.20
2018-11-10T22:36:04.322Z,13.20
2018-11-10T22:38:32.505Z,15.17
2018-11-10T22:41:00.684Z,9.80
2018-11-10T22:43:28.854Z,10.73
2018-11-10T22:45:57.093Z,12.30
2018-11-10T22:48:25.248Z,16.70
2018-11-10T22:50:53.504Z,9.20
2018-11-10T22:53:21.628Z,12.13
2018-11-10T22:55:49.790Z,12.53
2018-11-10T22:58:17.923Z,15.63
2018-11-10T23:00:51.356Z,15.70
2018-11-10T23:03:19.497Z,14.73
2018-11-10T23:05:47.605Z,13.70
2018-11-10T23:08:16.163Z,15.83
2018-11-10T23:10:44.256Z,18.23
2018-11-10T23:13:12.426Z,12.30
2018-11-10T23:15:40.642Z,11.63
2018-11-10T23:18:08.777Z,12.80
2018-11-10T23:20:36.877Z,11.20
2018-11-10T23:23:05.404Z,10.20
2018-11-10T23:25:33.569Z,10.43
2018-11-10T23:28:01.653Z,12.60
2018-11-10T23:30:29.849Z,12.70
2018-11-10T23:32:57.914Z,13.40
2018-11-10T23:35:26.036Z,10.93
2018-11-10T23:37:54.220Z,15.85
2018-11-10T23:40:22.345Z,11.20
2018-11-10T23:42:50.464Z,12.70
2018-11-10T23:45:18.529Z,11.33
2018-11-10T23:47:46.665Z,11.47
2018-11-10T23:50:17.229Z,14.43
2018-11-10T23:52:45.518Z,11.10
2018-11-10T23:55:14.390Z,14.53
2018-11-10T23:57:42.547Z,8.97
